Virginia Beach, VA

1:04 AM EDT on April 21, 2015 (GMT -0400)
kings grant | | Change Station
CLOSE
Current Station
Personal Weather Station
Location: Virginia Beach, VA
Elevation: 33 ft
Nearby Weather Stations
Active Advisory: Tornado Watch

Elev 33 ft 36.85 °N, 76.08 °W | Updated 4 seconds ago

Overcast
Overcast
69.4 °F
Feels Like 69.4 °F
N
0.4
Wind Variable Wind from SW
Gusts 2.5 mph

Today
High -- | Low -- °F
--% Chance of Precip.
Yesterday
High -- | Low -- °F
Precip. -- in
6:22 AM 7:44 PM
Waxing Crescent, 8% visible
Pressure 29.66 in
Visibility 10.0 miles
Clouds Mostly Cloudy 5000 ft
Mostly Cloudy 10000 ft
Overcast 15000 ft
Dew Point 64 °F
Humidity 83%
Rainfall 0.00 in
Snow Depth Not available.
UV 0.0 out of 12
Pollen 3.30 out of 12
Air Quality Not available.
Flu Activity Local Activity
METAR KNTU 210456Z COR 20014KT 10SM -RA BKN050 BKN100 OVC150 22/16 A2965 RMK AO2 RAB50 SLP043 P0000 T02220161 402780183

More Conditions Fewer Conditions

Pressure 29.66 in
Visibility 10.0 miles
Clouds Mostly Cloudy 5000 ft
Mostly Cloudy 10000 ft
Overcast 15000 ft
Dew Point 64 °F
Humidity 83%
Rainfall 0.00 in
Snow Depth Not available.
UV 0.0 out of 12
Pollen 3.30 out of 12
Air Quality Not available.
Flu Activity Local Activity
METAR KNTU 210456Z COR 20014KT 10SM -RA BKN050 BKN100 OVC150 22/16 A2965 RMK AO2 RAB50 SLP043 P0000 T02220161 402780183

More Conditions Fewer Conditions

10-Day Weather Forecast

Almanac

Astronomy

Apr. 21, 2015 Rise Set
Actual Time
Civil Twilight
Nautical Twilight
Astronomical Twilight
Moon
Length of Visible Light
Length of Day
Tomorrow will be .
, % of the Moon is Illuminated

Today's Extremes

State Highs State Lows

Community

WunderPhotos

Upload Photos

1,815,316 photos uploaded!

WunderBlogs® & News

Nearby

Air Quality

  Air Quality AQ Index Pollutant
Not available.

Snow Depth

Station Depth Elevation

Earthquake Activity

City Distance Mag. Time & Date
Minimum magnitude displayed is 2.5.

Coastal Water Temperatures

Place Temperature

Stations

Nearby Weather Stations

Station Location Temp. Windchill Dew Point Humidity Wind Precip. Elev Updated Type
                   
Tornado Watch
Statement as of 1:03 AM EDT on April 21, 2015

Tornado Watch 93 remains in effect until 500 am EDT for the
following locations

VA
. Virginia counties included are

Brunswick Greensville Isle of Wight
Southampton Surry Sussex




Virginia independent cities included are

Chesapeake Emporia Franklin
Norfolk Portsmouth Suffolk
Virginia Beach